createdAt,value
2017-09-05T00:02:09.417Z,101622.23
2017-09-05T00:04:37.859Z,101620.94
2017-09-05T00:07:06.289Z,101626.13
2017-09-05T00:09:43.259Z,101617.60
2017-09-05T00:15:32.313Z,101619.87
2017-09-05T00:21:23.772Z,101628.89
2017-09-05T00:23:52.223Z,101631.13
2017-09-05T00:26:20.639Z,101628.52
2017-09-05T00:28:49.083Z,101619.89
2017-09-05T00:31:17.517Z,101624.77
2017-09-05T00:33:46.020Z,101621.30
2017-09-05T00:36:14.509Z,101620.49
2017-09-05T00:38:42.997Z,101624.45
2017-09-05T00:41:11.418Z,101627.83
2017-09-05T00:43:39.846Z,101627.02
2017-09-05T00:46:08.264Z,101620.56
2017-09-05T00:48:36.707Z,101620.17
2017-09-05T00:51:05.146Z,101622.28
2017-09-05T00:53:33.667Z,101617.10
2017-09-05T00:56:02.158Z,101621.80
2017-09-05T00:58:30.599Z,101626.00
2017-09-05T01:00:59.025Z,101614.45
2017-09-05T01:03:27.509Z,101614.88
2017-09-05T01:05:55.932Z,101611.56
2017-09-05T01:08:24.455Z,101617.66
2017-09-05T01:10:52.917Z,101617.23
2017-09-05T01:13:21.424Z,101610.77
2017-09-05T01:15:49.912Z,101618.64
2017-09-05T01:18:18.387Z,101615.61
2017-09-05T01:20:46.845Z,101611.73
2017-09-05T01:23:15.366Z,101610.88
2017-09-05T01:25:43.853Z,101611.73
2017-09-05T01:28:12.320Z,101613.45
2017-09-05T01:30:40.817Z,101615.17
2017-09-05T01:33:09.249Z,101620.80
2017-09-05T01:35:37.782Z,101619.50
2017-09-05T01:38:06.258Z,101620.47
2017-09-05T01:40:34.745Z,101620.05
2017-09-05T01:43:03.221Z,101617.88
2017-09-05T01:45:31.710Z,101613.25
2017-09-05T01:48:00.186Z,101608.52
2017-09-05T01:50:28.676Z,101608.94
2017-09-05T01:52:57.140Z,101612.78
2017-09-05T01:55:25.598Z,101611.05
2017-09-05T01:57:54.105Z,101606.30
2017-09-05T02:00:22.553Z,101611.96
2017-09-05T02:02:51.068Z,101612.45
2017-09-05T02:05:19.556Z,101614.60
2017-09-05T02:07:48.027Z,101611.11
2017-09-05T02:10:16.476Z,101608.19
2017-09-05T02:12:44.908Z,101608.30
2017-09-05T02:15:13.372Z,101605.71
2017-09-05T02:17:41.857Z,101605.77
2017-09-05T02:20:10.313Z,101601.40
2017-09-05T02:22:38.819Z,101600.16
2017-09-05T02:25:07.305Z,101600.16
2017-09-05T02:27:35.731Z,101610.46
2017-09-05T02:30:04.185Z,101606.52
2017-09-05T02:32:32.658Z,101610.03
2017-09-05T02:35:01.125Z,101607.01
2017-09-05T02:37:30.456Z,101601.89
2017-09-05T02:39:59.010Z,101604.92
2017-09-05T02:42:27.496Z,101598.93
2017-09-05T02:44:55.980Z,101591.20
2017-09-05T02:47:24.417Z,101592.45
2017-09-05T02:49:52.945Z,101592.87
2017-09-05T02:52:21.424Z,101592.87
2017-09-05T02:54:49.882Z,101598.05
2017-09-05T02:57:18.324Z,101597.14
2017-09-05T02:59:46.882Z,101604.05
2017-09-05T03:02:15.326Z,101599.78
2017-09-05T03:04:43.773Z,101598.12
2017-09-05T03:07:12.992Z,101599.34
2017-09-05T03:09:41.478Z,101605.78
2017-09-05T03:12:10.014Z,101605.77
2017-09-05T03:14:38.485Z,101607.44
2017-09-05T03:17:06.976Z,101609.06
2017-09-05T03:19:35.452Z,101612.02
2017-09-05T03:22:03.941Z,101616.34
2017-09-05T03:24:32.375Z,101615.09
2017-09-05T03:27:00.899Z,101608.67
2017-09-05T03:29:29.372Z,101597.52
2017-09-05T03:31:57.856Z,101597.63
2017-09-05T03:34:26.337Z,101596.77
2017-09-05T03:36:54.802Z,101609.33
2017-09-05T03:39:24.028Z,101609.76
2017-09-05T03:41:52.504Z,101613.17
2017-09-05T03:44:20.980Z,101615.33
2017-09-05T03:46:49.474Z,101615.77
2017-09-05T03:49:17.930Z,101620.56
2017-09-05T03:51:47.155Z,101618.80
2017-09-05T03:54:15.619Z,101615.34
2017-09-05T03:56:44.119Z,101622.72
2017-09-05T03:59:12.561Z,101618.47
2017-09-05T04:01:41.083Z,101621.05
2017-09-05T04:04:09.552Z,101624.55
2017-09-05T04:06:38.036Z,101625.86
2017-09-05T04:09:06.523Z,101623.27
2017-09-05T04:11:35.000Z,101623.37
2017-09-05T04:14:03.479Z,101623.80
2017-09-05T04:16:31.937Z,101623.81
2017-09-05T04:19:01.175Z,101630.76
2017-09-05T04:21:29.655Z,101629.89
2017-09-05T04:23:58.133Z,101630.77
2017-09-05T04:26:26.611Z,101626.94
2017-09-05T04:28:55.049Z,101642.41
2017-09-05T04:31:23.587Z,101639.28
2017-09-05T04:33:52.052Z,101639.66
2017-09-05T04:36:20.514Z,101638.38
2017-09-05T04:38:49.015Z,101643.11
2017-09-05T04:41:17.505Z,101634.00
2017-09-05T04:43:45.989Z,101628.77
2017-09-05T04:46:14.480Z,101627.97
2017-09-05T04:48:42.943Z,101624.06
2017-09-05T04:51:11.393Z,101624.45
2017-09-05T04:53:39.922Z,101636.53
2017-09-05T04:56:08.407Z,101635.60
2017-09-05T04:58:36.880Z,101639.85
2017-09-05T05:01:05.372Z,101645.41
2017-09-05T05:03:33.850Z,101653.02
2017-09-05T05:06:02.331Z,101640.37
2017-09-05T05:08:30.777Z,101648.55
2017-09-05T05:11:00.115Z,101645.94
2017-09-05T05:13:28.546Z,101649.34
2017-09-05T05:15:57.068Z,101641.56
2017-09-05T05:18:25.533Z,101644.90
2017-09-05T05:20:54.047Z,101646.08
2017-09-05T05:23:22.526Z,101654.05
2017-09-05T05:25:50.960Z,101649.19
2017-09-05T05:28:19.411Z,101651.22
2017-09-05T05:30:47.870Z,101650.18
2017-09-05T05:33:16.350Z,101652.64
2017-09-05T05:35:44.834Z,101659.04
2017-09-05T05:38:13.285Z,101647.64
2017-09-05T05:40:41.802Z,101649.72
2017-09-05T05:43:10.880Z,101652.17
2017-09-05T05:45:39.363Z,101643.34
2017-09-05T05:48:07.843Z,101647.83
2017-09-05T05:50:36.272Z,101639.40
2017-09-05T05:53:05.154Z,101641.75
2017-09-05T05:55:33.610Z,101651.05
2017-09-05T05:58:02.096Z,101652.62
2017-09-05T06:00:30.564Z,101656.29
2017-09-05T06:02:59.029Z,101658.65
2017-09-05T06:05:28.250Z,101665.86
2017-09-05T06:07:56.738Z,101663.05
2017-09-05T06:10:25.224Z,101659.86
2017-09-05T06:12:53.677Z,101653.13
2017-09-05T06:15:22.113Z,101651.58
2017-09-05T06:17:50.657Z,101651.70
2017-09-05T06:20:19.154Z,101658.30
2017-09-05T06:22:47.612Z,101653.30
2017-09-05T06:25:16.105Z,101654.44
2017-09-05T06:27:44.584Z,101652.81
2017-09-05T06:30:13.068Z,101644.83
2017-09-05T06:32:41.524Z,101650.66
2017-09-05T06:35:10.046Z,101649.16
2017-09-05T06:37:38.629Z,101648.25
2017-09-05T06:40:07.110Z,101647.77
2017-09-05T06:42:35.550Z,101651.75
2017-09-05T06:45:03.980Z,101652.41
2017-09-05T06:47:32.433Z,101658.98
2017-09-05T06:50:00.930Z,101660.09
2017-09-05T06:52:29.522Z,101653.19
2017-09-05T06:54:58.002Z,101653.52
2017-09-05T06:57:26.467Z,101652.95
2017-09-05T06:59:54.962Z,101650.45
2017-09-05T07:02:23.454Z,101653.80
2017-09-05T07:04:52.034Z,101649.49
2017-09-05T07:07:20.609Z,101648.65
2017-09-05T07:09:49.036Z,101657.79
2017-09-05T07:12:17.494Z,101659.29
2017-09-05T07:14:46.062Z,101660.06
2017-09-05T07:17:17.514Z,101654.30
2017-09-05T07:19:45.964Z,101652.87
2017-09-05T07:22:14.465Z,101644.70
2017-09-05T07:24:42.904Z,101656.23
2017-09-05T07:27:11.343Z,101644.48
2017-09-05T07:29:39.949Z,101648.56
2017-09-05T07:32:08.402Z,101637.33
2017-09-05T07:34:36.876Z,101638.14
2017-09-05T07:37:05.304Z,101641.55
2017-09-05T07:39:33.752Z,101644.27
2017-09-05T07:42:02.181Z,101651.08
2017-09-05T07:44:30.741Z,101656.25
2017-09-05T07:46:59.190Z,101658.48
2017-09-05T07:49:27.658Z,101671.90
2017-09-05T07:51:56.148Z,101666.16
2017-09-05T07:54:24.584Z,101666.88
2017-09-05T07:56:53.110Z,101664.11
2017-09-05T07:59:21.610Z,101660.13
2017-09-05T08:01:50.052Z,101667.16
2017-09-05T08:04:18.565Z,101666.21
2017-09-05T08:06:47.035Z,101667.27
2017-09-05T08:09:15.530Z,101672.91
2017-09-05T08:11:43.969Z,101673.20
2017-09-05T08:14:12.494Z,101673.82
2017-09-05T08:16:40.967Z,101675.69
2017-09-05T08:19:09.463Z,101674.81
2017-09-05T08:21:37.948Z,101675.69
2017-09-05T08:24:06.391Z,101679.72
2017-09-05T08:26:34.901Z,101677.92
2017-09-05T08:29:03.376Z,101669.18
2017-09-05T08:31:31.860Z,101675.43
2017-09-05T08:34:00.351Z,101666.34
2017-09-05T08:36:28.824Z,101673.34
2017-09-05T08:38:57.314Z,101664.59
2017-09-05T08:41:25.802Z,101667.78
2017-09-05T08:43:54.278Z,101669.15
2017-09-05T08:46:22.753Z,101666.92
2017-09-05T08:48:51.248Z,101668.75
2017-09-05T08:51:19.677Z,101662.89
2017-09-05T08:53:48.197Z,101661.05
2017-09-05T08:56:16.676Z,101660.98
2017-09-05T08:58:45.159Z,101671.83
2017-09-05T09:01:13.644Z,101670.23
2017-09-05T09:03:42.134Z,101672.05
2017-09-05T09:06:10.608Z,101672.48
2017-09-05T09:08:39.121Z,101673.09
2017-09-05T09:11:07.586Z,101670.77
2017-09-05T09:13:36.034Z,101668.38
2017-09-05T09:16:04.548Z,101674.93
2017-09-05T09:18:33.012Z,101677.03
2017-09-05T09:21:01.460Z,101676.48
2017-09-05T09:23:29.979Z,101675.84
2017-09-05T09:25:58.442Z,101687.19
2017-09-05T09:28:26.950Z,101678.59
2017-09-05T09:30:55.441Z,101686.88
2017-09-05T09:33:23.917Z,101690.25
2017-09-05T09:35:52.507Z,101683.38
2017-09-05T09:38:20.990Z,101689.00
2017-09-05T09:40:49.450Z,101696.59
2017-09-05T09:43:17.949Z,101691.19
2017-09-05T09:45:46.436Z,101687.49
2017-09-05T09:48:14.914Z,101683.84
2017-09-05T09:50:43.385Z,101684.32
2017-09-05T09:53:11.867Z,101682.21
2017-09-05T09:55:40.334Z,101680.13
2017-09-05T09:58:08.760Z,101684.37
2017-09-05T10:00:37.313Z,101679.59
2017-09-05T10:03:05.752Z,101679.94
2017-09-05T10:05:34.281Z,101684.16
2017-09-05T10:08:02.774Z,101671.67
2017-09-05T10:10:31.240Z,101678.68
2017-09-05T10:12:59.673Z,101676.22
2017-09-05T10:15:28.212Z,101669.83
2017-09-05T10:17:56.689Z,101669.17
2017-09-05T10:20:25.158Z,101666.28
2017-09-05T10:22:53.665Z,101662.62
2017-09-05T10:25:22.150Z,101666.47
2017-09-05T10:27:51.228Z,101668.02
2017-09-05T10:30:19.727Z,101667.98
2017-09-05T10:32:48.191Z,101666.22
2017-09-05T10:35:16.654Z,101654.81
2017-09-05T10:37:45.094Z,101662.71
2017-09-05T10:40:13.636Z,101656.78
2017-09-05T10:42:42.074Z,101665.42
2017-09-05T10:45:10.528Z,101655.94
2017-09-05T10:47:38.994Z,101658.17
2017-09-05T10:50:07.468Z,101654.40
2017-09-05T10:52:35.955Z,101651.60
2017-09-05T10:55:04.434Z,101651.19
2017-09-05T10:57:32.912Z,101652.27
2017-09-05T11:00:01.393Z,101651.13
2017-09-05T11:02:29.993Z,101648.18
2017-09-05T11:04:58.443Z,101644.06
2017-09-05T11:07:26.958Z,101645.23
2017-09-05T11:09:55.419Z,101647.08
2017-09-05T11:12:23.861Z,101639.36
2017-09-05T11:14:52.388Z,101636.70
2017-09-05T11:17:20.869Z,101636.14
2017-09-05T11:19:49.349Z,101643.20
2017-09-05T11:22:17.805Z,101645.55
2017-09-05T11:24:46.316Z,101633.62
2017-09-05T11:27:14.764Z,101634.55
2017-09-05T11:29:43.190Z,101640.53
2017-09-05T11:32:11.656Z,101643.11
2017-09-05T11:34:40.140Z,101639.70
2017-09-05T11:37:08.693Z,101635.55
2017-09-05T11:39:37.199Z,101628.98
2017-09-05T11:42:05.661Z,101628.69
2017-09-05T11:44:34.167Z,101624.55
2017-09-05T11:47:02.667Z,101627.67
2017-09-05T11:49:31.100Z,101625.39
2017-09-05T11:51:59.559Z,101612.25
2017-09-05T11:54:28.096Z,101617.81
2017-09-05T11:56:56.581Z,101623.27
2017-09-05T11:59:25.076Z,101618.86
2017-09-05T12:01:53.536Z,101613.59
2017-09-05T12:04:22.038Z,101620.05
2017-09-05T12:06:50.487Z,101620.53
2017-09-05T12:09:18.988Z,101609.06
2017-09-05T12:11:47.482Z,101610.30
2017-09-05T12:14:15.952Z,101605.52
2017-09-05T12:16:44.409Z,101608.47
2017-09-05T12:19:12.846Z,101613.00
2017-09-05T12:21:41.400Z,101604.88
2017-09-05T12:24:09.957Z,101603.81
2017-09-05T12:26:38.473Z,101604.58
2017-09-05T12:29:06.959Z,101603.27
2017-09-05T12:31:35.441Z,101597.10
2017-09-05T12:34:03.880Z,101595.28
2017-09-05T12:36:32.406Z,101596.14
2017-09-05T12:39:00.876Z,101596.36
2017-09-05T12:41:29.370Z,101594.97
2017-09-05T12:43:57.839Z,101592.16
2017-09-05T12:46:26.288Z,101593.10
2017-09-05T12:48:54.734Z,101590.30
2017-09-05T12:51:23.299Z,101593.73
2017-09-05T12:53:51.728Z,101594.08
2017-09-05T12:56:20.251Z,101585.36
2017-09-05T12:58:48.744Z,101579.41
2017-09-05T13:01:17.206Z,101580.49
2017-09-05T13:03:45.700Z,101585.78
2017-09-05T13:06:14.193Z,101587.38
2017-09-05T13:08:42.661Z,101591.05
2017-09-05T13:11:11.153Z,101588.46
2017-09-05T13:13:39.640Z,101588.45
2017-09-05T13:16:08.073Z,101583.98
2017-09-05T13:18:36.589Z,101584.09
2017-09-05T13:21:05.018Z,101582.03
2017-09-05T13:23:33.488Z,101583.28
2017-09-05T13:26:01.948Z,101582.63
2017-09-05T13:28:30.396Z,101578.14
2017-09-05T13:30:58.828Z,101580.13
2017-09-05T13:33:27.370Z,101578.83
2017-09-05T13:35:55.861Z,101572.50
2017-09-05T13:38:24.344Z,101575.64
2017-09-05T13:40:52.834Z,101577.36
2017-09-05T13:43:21.299Z,101576.45
2017-09-05T13:45:49.788Z,101576.59
2017-09-05T13:48:18.268Z,101577.43
2017-09-05T13:50:46.751Z,101576.50
2017-09-05T13:53:15.250Z,101576.72
2017-09-05T13:55:43.716Z,101577.08
2017-09-05T13:58:12.169Z,101581.03
2017-09-05T14:00:40.684Z,101584.31
2017-09-05T14:03:09.163Z,101577.13
2017-09-05T14:05:37.654Z,101580.85
2017-09-05T14:08:06.118Z,101573.46
2017-09-05T14:10:34.618Z,101577.16
2017-09-05T14:13:03.092Z,101577.91
2017-09-05T14:15:31.545Z,101572.67
2017-09-05T14:18:00.069Z,101570.67
2017-09-05T14:20:28.535Z,101574.73
2017-09-05T14:22:57.032Z,101572.27
2017-09-05T14:25:25.474Z,101570.80
2017-09-05T14:27:53.920Z,101570.62
2017-09-05T14:30:22.356Z,101570.17
2017-09-05T14:32:50.817Z,101565.23
2017-09-05T14:35:19.335Z,101563.87
2017-09-05T14:37:47.788Z,101566.59
2017-09-05T14:40:16.304Z,101565.18
2017-09-05T14:42:44.753Z,101570.00
2017-09-05T14:45:13.184Z,101571.63
2017-09-05T14:47:41.647Z,101566.63
2017-09-05T14:50:10.120Z,101566.30
2017-09-05T14:52:38.614Z,101563.64
2017-09-05T14:55:07.036Z,101560.30
2017-09-05T14:57:35.564Z,101565.13
2017-09-05T15:00:03.992Z,101566.30
2017-09-05T15:02:32.483Z,101559.09
2017-09-05T15:05:01.016Z,101560.26
2017-09-05T15:07:29.448Z,101568.23
2017-09-05T15:09:57.910Z,101566.20
2017-09-05T15:12:26.451Z,101566.19
2017-09-05T15:14:54.951Z,101564.09
2017-09-05T15:17:23.415Z,101565.84
2017-09-05T15:19:51.901Z,101566.48
2017-09-05T15:22:20.380Z,101564.04
2017-09-05T15:24:48.859Z,101569.02
2017-09-05T15:27:17.348Z,101564.11
2017-09-05T15:29:45.840Z,101563.44
2017-09-05T15:32:14.281Z,101560.37
2017-09-05T15:34:42.787Z,101552.63
2017-09-05T15:37:11.288Z,101556.40
2017-09-05T15:39:39.755Z,101557.91
2017-09-05T15:42:08.250Z,101555.08
2017-09-05T15:44:36.701Z,101556.63
2017-09-05T15:47:05.212Z,101558.91
2017-09-05T15:49:33.678Z,101555.74
2017-09-05T15:52:02.122Z,101550.86
2017-09-05T15:54:30.643Z,101551.87
2017-09-05T15:56:59.082Z,101558.63
2017-09-05T15:59:27.543Z,101561.75
2017-09-05T16:01:56.087Z,101561.52
2017-09-05T16:04:24.577Z,101560.52
2017-09-05T16:06:53.013Z,101562.67
2017-09-05T16:09:21.536Z,101562.31
2017-09-05T16:11:49.965Z,101560.86
2017-09-05T16:14:18.416Z,101556.92
2017-09-05T16:16:46.902Z,101559.13
2017-09-05T16:19:15.584Z,101557.75
2017-09-05T16:21:44.008Z,101561.04
2017-09-05T16:24:12.532Z,101558.66
2017-09-05T16:26:40.956Z,101560.14
2017-09-05T16:29:09.417Z,101568.87
2017-09-05T16:31:37.844Z,101565.44
2017-09-05T16:34:06.372Z,101569.36
2017-09-05T16:36:34.840Z,101566.80
2017-09-05T16:39:03.297Z,101565.52
2017-09-05T16:41:31.813Z,101567.28
2017-09-05T16:44:00.296Z,101565.97
2017-09-05T16:46:28.732Z,101567.30
2017-09-05T16:48:57.248Z,101569.96
2017-09-05T16:51:25.736Z,101570.00
2017-09-05T16:53:54.213Z,101568.52
2017-09-05T16:56:22.696Z,101567.97
2017-09-05T16:58:51.150Z,101571.88
2017-09-05T17:01:19.664Z,101572.33
2017-09-05T17:03:48.097Z,101573.73
2017-09-05T17:06:16.548Z,101569.93
2017-09-05T17:08:45.019Z,101574.30
2017-09-05T17:11:13.925Z,101572.27
2017-09-05T17:13:42.366Z,101570.20
2017-09-05T17:16:10.856Z,101578.30
2017-09-05T17:18:39.340Z,101567.38
2017-09-05T17:21:07.788Z,101575.69
2017-09-05T17:23:36.305Z,101569.95
2017-09-05T17:26:04.800Z,101569.85
2017-09-05T17:28:33.284Z,101568.00
2017-09-05T17:31:01.746Z,101563.57
2017-09-05T17:33:30.172Z,101570.14
2017-09-05T17:35:58.712Z,101567.61
2017-09-05T17:38:27.993Z,101566.78
2017-09-05T17:40:56.440Z,101567.40
2017-09-05T17:43:24.868Z,101566.86
2017-09-05T17:45:53.316Z,101566.83
2017-09-05T17:48:21.878Z,101566.07
2017-09-05T17:50:50.424Z,101567.59
2017-09-05T17:53:18.851Z,101566.63
2017-09-05T17:55:47.532Z,101573.52
2017-09-05T17:58:16.196Z,101575.73
2017-09-05T18:00:44.904Z,101568.36
2017-09-05T18:03:13.342Z,101570.03
2017-09-05T18:05:41.833Z,101575.80
2017-09-05T18:08:10.279Z,101569.95
2017-09-05T18:10:38.869Z,101575.28
2017-09-05T18:13:07.300Z,101577.13
2017-09-05T18:15:35.784Z,101579.77
2017-09-05T18:18:04.221Z,101580.70
2017-09-05T18:20:32.676Z,101578.16
2017-09-05T18:23:01.391Z,101581.43
2017-09-05T18:25:29.899Z,101578.25
2017-09-05T18:27:58.340Z,101575.80
2017-09-05T18:30:26.797Z,101584.70
2017-09-05T18:32:55.351Z,101591.30
2017-09-05T18:35:23.832Z,101590.55
2017-09-05T18:37:52.304Z,101584.77
2017-09-05T18:40:20.796Z,101584.11
2017-09-05T18:42:49.239Z,101587.48
2017-09-05T18:45:17.705Z,101583.51
2017-09-05T18:47:46.238Z,101582.91
2017-09-05T18:50:14.716Z,101584.29
2017-09-05T18:52:43.151Z,101581.89
2017-09-05T18:55:11.686Z,101587.69
2017-09-05T18:57:40.171Z,101586.55
2017-09-05T19:00:08.880Z,101588.95
2017-09-05T19:02:37.442Z,101596.87
2017-09-05T19:05:05.873Z,101593.56
2017-09-05T19:07:34.397Z,101587.48
2017-09-05T19:10:02.848Z,101593.14
2017-09-05T19:12:31.355Z,101590.09
2017-09-05T19:14:59.798Z,101590.79
2017-09-05T19:17:28.367Z,101584.76
2017-09-05T19:19:56.794Z,101586.33
2017-09-05T19:22:25.624Z,101592.02
2017-09-05T19:24:54.086Z,101585.13
2017-09-05T19:27:22.552Z,101585.27
2017-09-05T19:29:50.985Z,101582.99
2017-09-05T19:32:19.533Z,101581.82
2017-09-05T19:34:48.110Z,101584.09
2017-09-05T19:37:16.564Z,101585.55
2017-09-05T19:39:45.407Z,101589.25
2017-09-05T19:42:13.975Z,101586.20
2017-09-05T19:44:42.440Z,101584.39
2017-09-05T19:47:10.888Z,101582.66
2017-09-05T19:49:39.401Z,101584.53
2017-09-05T19:52:08.024Z,101580.03
2017-09-05T19:54:36.468Z,101573.19
2017-09-05T19:57:05.079Z,101577.21
2017-09-05T19:59:33.785Z,101571.42
2017-09-05T20:02:02.325Z,101567.06
2017-09-05T20:04:30.808Z,101569.72
2017-09-05T20:06:59.582Z,101564.28
2017-09-05T20:09:28.076Z,101559.66
2017-09-05T20:11:56.538Z,101560.16
2017-09-05T20:14:24.978Z,101564.73
2017-09-05T20:16:53.429Z,101565.38
2017-09-05T20:19:21.905Z,101557.98
2017-09-05T20:21:50.353Z,101566.75
2017-09-05T20:24:18.869Z,101562.77
2017-09-05T20:26:47.348Z,101559.22
2017-09-05T20:29:15.832Z,101556.80
2017-09-05T20:31:44.316Z,101559.96
2017-09-05T20:34:12.758Z,101560.84
2017-09-05T20:36:41.324Z,101558.87
2017-09-05T20:39:09.757Z,101557.70
2017-09-05T20:41:38.250Z,101552.91
2017-09-05T20:44:06.737Z,101555.17
2017-09-05T20:46:35.204Z,101558.48
2017-09-05T20:49:03.629Z,101561.44
2017-09-05T20:51:32.179Z,101558.39
2017-09-05T20:54:00.659Z,101561.20
2017-09-05T20:56:29.113Z,101556.60
2017-09-05T20:58:58.340Z,101553.22
2017-09-05T21:01:26.777Z,101556.80
2017-09-05T21:03:55.227Z,101541.73
2017-09-05T21:06:23.690Z,101542.05
2017-09-05T21:08:52.149Z,101544.30
2017-09-05T21:11:20.635Z,101542.50
2017-09-05T21:13:49.099Z,101535.02
2017-09-05T21:16:17.599Z,101531.55
2017-09-05T21:18:46.100Z,101530.95
2017-09-05T21:21:14.569Z,101524.05
2017-09-05T21:23:43.058Z,101518.77
2017-09-05T21:26:11.527Z,101519.31
2017-09-05T21:28:40.015Z,101520.09
2017-09-05T21:31:08.444Z,101524.41
2017-09-05T21:33:36.892Z,101522.84
2017-09-05T21:36:05.355Z,101520.73
2017-09-05T21:38:33.823Z,101512.55
2017-09-05T21:41:02.320Z,101515.98
2017-09-05T21:43:30.768Z,101508.73
2017-09-05T21:45:59.201Z,101516.13
2017-09-05T21:48:27.661Z,101519.77
2017-09-05T21:50:56.144Z,101513.00
2017-09-05T21:53:24.643Z,101515.70
2017-09-05T21:55:53.094Z,101520.76
2017-09-05T21:58:21.602Z,101505.94
2017-09-05T22:00:50.081Z,101509.61
2017-09-05T22:03:18.557Z,101507.32
2017-09-05T22:05:46.980Z,101501.39
2017-09-05T22:08:15.531Z,101496.81
2017-09-05T22:10:44.047Z,101493.97
2017-09-05T22:13:12.506Z,101480.13
2017-09-05T22:15:40.975Z,101489.17
2017-09-05T22:18:09.439Z,101484.47
2017-09-05T22:20:43.411Z,101491.00
2017-09-05T22:23:11.856Z,101491.64
2017-09-05T22:25:45.689Z,101486.90
2017-09-05T22:28:19.697Z,101478.31
2017-09-05T22:30:48.240Z,101477.48
2017-09-05T22:33:16.729Z,101473.59
2017-09-05T22:35:45.174Z,101476.77
2017-09-05T22:38:13.698Z,101464.22
2017-09-05T22:40:42.172Z,101472.61
2017-09-05T22:43:10.619Z,101465.82
2017-09-05T22:45:39.851Z,101468.97
2017-09-05T22:48:08.307Z,101462.63
2017-09-05T22:50:36.829Z,101464.61
2017-09-05T22:53:05.310Z,101456.27
2017-09-05T22:55:33.749Z,101457.08
2017-09-05T22:58:02.266Z,101463.72
2017-09-05T23:00:30.750Z,101458.79
2017-09-05T23:02:59.224Z,101456.30
2017-09-05T23:05:27.670Z,101461.67
2017-09-05T23:07:56.188Z,101455.72
2017-09-05T23:10:24.616Z,101450.53
2017-09-05T23:12:53.170Z,101446.38
2017-09-05T23:15:21.756Z,101445.45
2017-09-05T23:17:50.220Z,101449.77
2017-09-05T23:20:18.710Z,101443.45
2017-09-05T23:22:47.180Z,101439.03
2017-09-05T23:25:15.678Z,101438.14
2017-09-05T23:27:44.114Z,101432.16
2017-09-05T23:30:12.624Z,101436.53
2017-09-05T23:32:41.066Z,101432.54
2017-09-05T23:35:09.606Z,101431.64
2017-09-05T23:37:38.036Z,101433.47
2017-09-05T23:40:06.501Z,101422.64
2017-09-05T23:42:35.038Z,101417.94
2017-09-05T23:45:03.520Z,101420.24
2017-09-05T23:47:32.016Z,101415.92
2017-09-05T23:50:00.474Z,101419.37
2017-09-05T23:52:28.964Z,101414.92
2017-09-05T23:54:57.448Z,101411.78
2017-09-05T23:57:25.944Z,101406.61
2017-09-05T23:59:54.417Z,101407.63
